createdAt,value
2023-12-19T00:01:20.319Z,89.21
2023-12-19T00:03:48.625Z,88.21
2023-12-19T00:06:16.521Z,88.53
2023-12-19T00:08:45.843Z,88.72
2023-12-19T00:11:13.700Z,89.36
2023-12-19T00:13:41.666Z,88.03
2023-12-19T00:16:09.596Z,88.93
2023-12-19T00:18:37.592Z,89.36
2023-12-19T00:21:06.250Z,88.57
2023-12-19T00:23:34.124Z,88.51
2023-12-19T00:26:03.403Z,87.02
2023-12-19T00:28:32.851Z,87.42
2023-12-19T00:31:00.778Z,87.25
2023-12-19T00:33:28.853Z,88.53
2023-12-19T00:35:57.221Z,88.22
2023-12-19T00:38:25.065Z,88.21
2023-12-19T00:40:52.966Z,87.37
2023-12-19T00:43:22.183Z,87.75
2023-12-19T00:45:50.047Z,87.56
2023-12-19T00:48:18.879Z,87.11
2023-12-19T00:50:46.903Z,86.71
2023-12-19T00:53:14.730Z,85.88
2023-12-19T00:55:42.610Z,86.30
2023-12-19T00:58:10.504Z,87.30
2023-12-19T01:00:39.832Z,86.84
2023-12-19T01:03:07.855Z,87.56
2023-12-19T01:05:35.711Z,87.07
2023-12-19T01:08:03.588Z,87.84
2023-12-19T01:10:31.439Z,87.63
2023-12-19T01:12:59.339Z,87.59
2023-12-19T01:15:27.553Z,86.82
2023-12-19T01:17:56.862Z,87.18
2023-12-19T01:20:24.808Z,87.53
2023-12-19T01:22:52.660Z,86.65
2023-12-19T01:25:20.558Z,86.12
2023-12-19T01:27:48.423Z,86.20
2023-12-19T01:30:16.501Z,85.51
2023-12-19T01:32:44.632Z,86.09
2023-12-19T01:35:14.077Z,86.18
2023-12-19T01:37:41.932Z,86.10
2023-12-19T01:40:10.742Z,86.31
2023-12-19T01:42:38.661Z,85.63
2023-12-19T01:45:11.608Z,84.98
2023-12-19T01:47:42.467Z,84.58
2023-12-19T01:50:10.590Z,83.96
2023-12-19T01:52:43.773Z,83.62
2023-12-19T01:55:12.809Z,83.20
2023-12-19T01:57:40.855Z,83.60
2023-12-19T02:00:10.314Z,82.97
2023-12-19T02:02:38.318Z,82.11
2023-12-19T02:05:07.282Z,83.00
2023-12-19T02:07:35.438Z,82.11
2023-12-19T02:10:04.987Z,82.32
2023-12-19T02:12:33.375Z,82.51
2023-12-19T02:15:01.359Z,83.07
2023-12-19T02:17:29.361Z,82.22
2023-12-19T02:19:57.268Z,82.16
2023-12-19T02:22:25.119Z,83.30
2023-12-19T02:24:54.493Z,83.27
2023-12-19T02:27:25.717Z,84.00
2023-12-19T02:29:53.782Z,84.92
2023-12-19T02:32:21.708Z,85.28
2023-12-19T02:34:50.457Z,84.98
2023-12-19T02:37:18.407Z,85.25
2023-12-19T02:39:46.304Z,85.01
2023-12-19T02:42:15.590Z,85.43
2023-12-19T02:44:43.428Z,84.39
2023-12-19T02:47:11.298Z,83.63
2023-12-19T02:49:39.279Z,84.20
2023-12-19T02:52:07.446Z,84.67
2023-12-19T02:54:35.350Z,85.15
2023-12-19T02:57:03.238Z,85.35
2023-12-19T02:59:32.443Z,86.00
2023-12-19T03:02:00.288Z,86.08
2023-12-19T03:04:28.392Z,84.98
2023-12-19T03:06:56.344Z,85.57
2023-12-19T03:09:24.291Z,85.39
2023-12-19T03:12:04.409Z,85.54
2023-12-19T03:14:34.855Z,86.54
2023-12-19T03:17:03.467Z,85.39
2023-12-19T03:19:32.122Z,85.50
2023-12-19T03:22:00.199Z,85.02
2023-12-19T03:24:30.181Z,85.21
2023-12-19T03:26:58.253Z,83.99
2023-12-19T03:29:26.121Z,84.57
2023-12-19T03:31:55.432Z,85.28
2023-12-19T03:34:23.365Z,84.48
2023-12-19T03:36:51.447Z,84.87
2023-12-19T03:39:19.581Z,83.93
2023-12-19T03:42:10.146Z,83.76
2023-12-19T03:44:35.507Z,83.28
2023-12-19T03:47:05.176Z,83.49
2023-12-19T03:49:33.169Z,83.44
2023-12-19T03:52:01.216Z,82.74
2023-12-19T03:54:29.259Z,82.78
2023-12-19T03:56:57.253Z,82.76
2023-12-19T03:59:25.094Z,83.57
2023-12-19T04:01:53.399Z,83.50
2023-12-19T04:04:22.801Z,82.40
2023-12-19T04:06:50.741Z,81.72
2023-12-19T04:09:18.735Z,82.25
2023-12-19T04:11:49.529Z,81.75
2023-12-19T04:14:17.687Z,81.72
2023-12-19T04:16:45.690Z,82.15
2023-12-19T04:19:14.069Z,82.17
2023-12-19T04:21:44.042Z,82.06
2023-12-19T04:24:12.242Z,82.43
2023-12-19T04:26:40.153Z,82.30
2023-12-19T04:29:08.011Z,82.98
2023-12-19T04:31:36.116Z,81.74
2023-12-19T04:34:04.346Z,81.89
2023-12-19T04:36:33.243Z,82.60
2023-12-19T04:39:02.658Z,83.24
2023-12-19T04:41:30.558Z,83.64
2023-12-19T04:43:58.843Z,84.15
2023-12-19T04:46:26.817Z,85.15
2023-12-19T04:48:56.860Z,85.09
2023-12-19T04:51:25.087Z,86.10
2023-12-19T04:53:53.293Z,85.77
2023-12-19T04:56:22.566Z,84.96
2023-12-19T04:58:50.435Z,84.58
2023-12-19T05:01:18.540Z,84.93
2023-12-19T05:03:46.523Z,84.64
2023-12-19T05:06:18.402Z,85.07
2023-12-19T05:08:47.209Z,84.77
2023-12-19T05:11:15.266Z,85.00
2023-12-19T05:13:44.660Z,84.75
2023-12-19T05:16:14.996Z,84.36
2023-12-19T05:18:43.401Z,84.30
2023-12-19T05:21:12.252Z,84.29
2023-12-19T05:23:41.507Z,85.10
2023-12-19T05:26:10.521Z,84.40
2023-12-19T05:28:40.725Z,83.47
2023-12-19T05:31:11.569Z,82.35
2023-12-19T05:33:39.903Z,82.38
2023-12-19T05:36:08.157Z,82.88
2023-12-19T05:38:36.021Z,82.40
2023-12-19T05:41:04.710Z,82.54
2023-12-19T05:43:32.722Z,83.01
2023-12-19T05:46:01.611Z,82.56
2023-12-19T05:48:30.961Z,82.92
2023-12-19T05:51:00.846Z,83.58
2023-12-19T05:53:29.230Z,84.56
2023-12-19T05:55:57.257Z,85.32
2023-12-19T05:58:25.282Z,85.01
2023-12-19T06:00:56.996Z,85.22
2023-12-19T06:03:25.633Z,85.04
2023-12-19T06:05:55.078Z,84.35
2023-12-19T06:08:24.094Z,83.44
2023-12-19T06:10:52.352Z,83.03
2023-12-19T06:13:20.743Z,82.50
2023-12-19T06:15:48.679Z,82.13
2023-12-19T06:18:17.782Z,81.82
2023-12-19T06:20:45.891Z,82.58
2023-12-19T06:23:15.431Z,82.70
2023-12-19T06:25:43.357Z,83.06
2023-12-19T06:28:11.352Z,84.00
2023-12-19T06:30:39.999Z,83.58
2023-12-19T06:33:08.376Z,84.14
2023-12-19T06:35:40.942Z,83.76
2023-12-19T06:38:08.959Z,83.57
2023-12-19T06:40:38.861Z,84.11
2023-12-19T06:43:11.577Z,85.11
2023-12-19T06:45:40.024Z,84.89
2023-12-19T06:48:08.562Z,84.87
2023-12-19T06:50:36.533Z,83.92
2023-12-19T06:53:04.533Z,83.69
2023-12-19T06:55:32.531Z,83.21
2023-12-19T06:58:02.024Z,83.47
2023-12-19T07:00:30.935Z,84.16
2023-12-19T07:02:58.994Z,84.53
2023-12-19T07:05:27.073Z,84.24
2023-12-19T07:07:54.952Z,84.24
2023-12-19T07:10:22.825Z,83.81
2023-12-19T07:12:50.747Z,84.27
2023-12-19T07:15:20.085Z,83.88
2023-12-19T07:17:47.990Z,83.52
2023-12-19T07:20:16.122Z,84.19
2023-12-19T07:22:44.243Z,84.84
2023-12-19T07:25:12.528Z,84.80
2023-12-19T07:27:42.689Z,85.03
2023-12-19T07:30:14.053Z,84.44
2023-12-19T07:32:43.753Z,84.93
2023-12-19T07:35:14.714Z,84.62
2023-12-19T07:37:43.289Z,84.68
2023-12-19T07:40:12.748Z,84.36
2023-12-19T07:42:42.487Z,83.71
2023-12-19T07:45:11.039Z,84.08
2023-12-19T07:47:39.098Z,84.35
2023-12-19T07:50:11.752Z,84.05
2023-12-19T07:52:40.073Z,83.56
2023-12-19T07:55:11.336Z,83.17
2023-12-19T07:57:39.843Z,83.40
2023-12-19T08:00:09.365Z,82.96
2023-12-19T08:02:40.590Z,82.91
2023-12-19T08:05:13.391Z,82.66
2023-12-19T08:07:41.530Z,83.27
2023-12-19T08:10:10.114Z,82.60
2023-12-19T08:12:39.448Z,82.75
2023-12-19T08:15:09.254Z,82.08
2023-12-19T08:17:38.635Z,82.72
2023-12-19T08:20:11.700Z,82.43
2023-12-19T08:22:39.712Z,80.57
2023-12-19T08:25:08.485Z,80.56
2023-12-19T08:27:36.602Z,80.95
2023-12-19T08:30:05.296Z,80.16
2023-12-19T08:32:33.192Z,79.56
2023-12-19T08:35:01.306Z,80.66
2023-12-19T08:37:31.004Z,81.32
2023-12-19T08:39:58.971Z,83.31
2023-12-19T08:42:27.529Z,84.60
2023-12-19T08:44:56.960Z,84.44
2023-12-19T08:47:25.446Z,84.35
2023-12-19T08:49:54.053Z,84.24
2023-12-19T08:52:25.245Z,83.57
2023-12-19T08:54:54.628Z,83.39
2023-12-19T08:57:22.589Z,83.00
2023-12-19T08:59:50.593Z,82.51
2023-12-19T09:02:18.462Z,82.64
2023-12-19T09:04:46.465Z,83.40
2023-12-19T09:07:14.432Z,83.73
2023-12-19T09:09:42.366Z,85.41
2023-12-19T09:12:11.615Z,86.25
2023-12-19T09:14:39.525Z,88.25
2023-12-19T09:17:07.390Z,89.84
2023-12-19T09:19:36.186Z,87.54
2023-12-19T09:22:04.865Z,85.27
2023-12-19T09:24:32.900Z,84.45
2023-12-19T09:27:00.777Z,83.46
2023-12-19T09:29:30.039Z,81.96
2023-12-19T09:31:58.867Z,81.14
2023-12-19T09:34:27.478Z,80.65
2023-12-19T09:36:57.420Z,80.97
2023-12-19T09:39:26.129Z,81.60
2023-12-19T09:41:54.910Z,81.85
2023-12-19T09:44:26.040Z,82.36
2023-12-19T09:46:56.931Z,81.06
2023-12-19T09:49:26.953Z,81.86
2023-12-19T09:51:57.120Z,84.45
2023-12-19T09:54:25.794Z,84.13
2023-12-19T09:56:54.470Z,85.71
2023-12-19T09:59:22.636Z,84.64
2023-12-19T10:01:50.729Z,83.70
2023-12-19T10:04:20.473Z,83.74
2023-12-19T10:06:56.763Z,82.32
2023-12-19T10:09:24.853Z,81.38
2023-12-19T10:12:08.852Z,80.77
2023-12-19T10:14:36.769Z,80.40
2023-12-19T10:17:07.105Z,80.31
2023-12-19T10:19:36.536Z,81.39
2023-12-19T10:22:08.504Z,80.93
2023-12-19T10:24:37.087Z,80.95
2023-12-19T10:27:07.163Z,79.82
2023-12-19T10:29:38.719Z,80.30
2023-12-19T10:32:18.016Z,79.89
2023-12-19T10:34:48.465Z,80.35
2023-12-19T10:37:19.372Z,79.55
2023-12-19T10:39:48.532Z,78.73
2023-12-19T10:42:20.232Z,79.05
2023-12-19T10:44:50.503Z,78.54
2023-12-19T10:47:18.749Z,77.94
2023-12-19T10:49:52.018Z,77.54
2023-12-19T10:52:23.653Z,78.13
2023-12-19T10:54:58.707Z,77.95
2023-12-19T10:57:30.243Z,77.56
2023-12-19T11:00:10.835Z,76.92
2023-12-19T11:02:56.855Z,75.62
2023-12-19T11:05:35.707Z,74.71
2023-12-19T11:08:06.118Z,73.68
2023-12-19T11:10:39.016Z,73.63
2023-12-19T11:13:07.110Z,72.48
2023-12-19T11:15:39.359Z,71.74
2023-12-19T11:18:14.789Z,71.43
2023-12-19T11:20:48.414Z,70.37
2023-12-19T11:23:32.421Z,69.87
2023-12-19T11:26:06.773Z,70.18
2023-12-19T11:28:38.080Z,70.13
2023-12-19T11:31:27.714Z,70.76
2023-12-19T11:33:56.054Z,71.04
2023-12-19T11:36:25.389Z,70.71
2023-12-19T11:39:13.468Z,69.90
2023-12-19T11:41:41.330Z,69.80
2023-12-19T11:44:09.181Z,70.16
2023-12-19T11:46:37.075Z,70.20
2023-12-19T11:49:04.996Z,69.75
2023-12-19T11:51:52.670Z,69.54
2023-12-19T11:54:20.912Z,69.12
2023-12-19T11:57:02.727Z,69.56
2023-12-19T11:59:50.957Z,70.78
2023-12-19T12:02:42.938Z,71.74
2023-12-19T12:05:14.031Z,72.32
2023-12-19T12:07:48.941Z,72.65
2023-12-19T12:10:19.538Z,72.91
2023-12-19T12:12:47.661Z,73.87
2023-12-19T12:15:18.916Z,72.93
2023-12-19T12:17:47.242Z,73.25
2023-12-19T12:20:16.724Z,72.49
2023-12-19T12:22:46.219Z,72.54
2023-12-19T12:25:14.809Z,73.00
2023-12-19T12:27:43.333Z,72.21
2023-12-19T12:30:12.695Z,72.72
2023-12-19T12:32:41.723Z,71.97
2023-12-19T12:35:28.020Z,71.78
2023-12-19T12:38:01.610Z,71.41
2023-12-19T12:40:29.896Z,70.93
2023-12-19T12:43:35.543Z,68.40
2023-12-19T12:46:12.575Z,69.37
2023-12-19T12:48:42.911Z,69.21
2023-12-19T12:51:11.104Z,67.91
2023-12-19T12:53:40.738Z,67.01
2023-12-19T12:56:18.184Z,66.41
2023-12-19T12:58:47.618Z,65.14
2023-12-19T13:01:16.108Z,64.86
2023-12-19T13:03:44.069Z,65.42
2023-12-19T13:06:12.167Z,63.70
2023-12-19T13:08:41.680Z,63.27
2023-12-19T13:11:10.043Z,63.13
2023-12-19T13:13:38.208Z,60.78
2023-12-19T13:16:08.115Z,60.63
2023-12-19T13:18:37.107Z,60.34
2023-12-19T13:21:06.213Z,60.49
2023-12-19T13:23:35.070Z,60.60
2023-12-19T13:26:04.373Z,59.61
2023-12-19T13:28:32.537Z,59.79
2023-12-19T13:31:00.536Z,59.19
2023-12-19T13:33:29.970Z,60.22
2023-12-19T13:35:57.982Z,59.59
2023-12-19T13:38:25.927Z,59.62
2023-12-19T13:40:53.942Z,58.80
2023-12-19T13:43:23.379Z,57.33
2023-12-19T13:45:51.459Z,58.53
2023-12-19T13:48:19.919Z,59.33
2023-12-19T13:50:47.912Z,59.46
2023-12-19T13:53:15.816Z,60.05
2023-12-19T13:55:43.904Z,59.57
2023-12-19T13:58:11.826Z,62.17
2023-12-19T14:00:41.179Z,61.55
2023-12-19T14:03:11.226Z,62.03
2023-12-19T14:05:39.627Z,63.00
2023-12-19T14:08:08.169Z,63.40
2023-12-19T14:10:36.127Z,63.51
2023-12-19T14:13:05.409Z,63.71
2023-12-19T14:15:33.767Z,63.49
2023-12-19T14:18:04.722Z,62.88
2023-12-19T14:20:32.685Z,62.83
2023-12-19T14:23:01.568Z,62.62
2023-12-19T14:25:29.473Z,62.80
2023-12-19T14:27:57.385Z,62.46
2023-12-19T14:30:25.369Z,63.13
2023-12-19T14:32:55.058Z,63.37
2023-12-19T14:35:24.591Z,63.03
2023-12-19T14:37:52.454Z,63.25
2023-12-19T14:40:20.442Z,63.51
2023-12-19T14:42:48.361Z,63.39
2023-12-19T14:45:16.307Z,62.61
2023-12-19T14:47:44.658Z,63.05
2023-12-19T14:50:13.286Z,63.28
2023-12-19T14:52:42.693Z,62.91
2023-12-19T14:55:10.900Z,63.00
2023-12-19T14:57:39.797Z,63.05
2023-12-19T15:00:11.864Z,63.34
2023-12-19T15:02:39.963Z,63.19
2023-12-19T15:05:08.480Z,63.95
2023-12-19T15:07:38.003Z,63.77
2023-12-19T15:10:10.810Z,62.93
2023-12-19T15:12:39.164Z,62.84
2023-12-19T15:15:08.192Z,62.92
2023-12-19T15:17:36.450Z,62.50
2023-12-19T15:20:05.737Z,62.28
2023-12-19T15:22:33.705Z,63.09
2023-12-19T15:25:01.939Z,62.65
2023-12-19T15:27:31.321Z,63.03
2023-12-19T15:30:00.342Z,63.05
2023-12-19T15:32:28.304Z,63.90
2023-12-19T15:34:56.272Z,64.38
2023-12-19T15:37:24.806Z,64.36
2023-12-19T15:39:52.786Z,64.88
2023-12-19T15:42:20.655Z,64.99
2023-12-19T15:44:50.635Z,65.85
2023-12-19T15:47:19.271Z,65.45
2023-12-19T15:49:47.314Z,66.69
2023-12-19T15:52:15.444Z,67.86
2023-12-19T15:54:43.658Z,68.42
2023-12-19T15:57:11.623Z,69.60
2023-12-19T15:59:39.493Z,70.15
2023-12-19T16:02:11.624Z,71.16
2023-12-19T16:04:43.684Z,71.12
2023-12-19T16:07:13.594Z,71.13
2023-12-19T16:09:41.688Z,72.24
2023-12-19T16:12:10.270Z,72.44
2023-12-19T16:14:38.167Z,72.66
2023-12-19T16:17:06.115Z,72.96
2023-12-19T16:19:37.159Z,73.17
2023-12-19T16:22:06.013Z,72.60
2023-12-19T16:24:33.909Z,74.00
2023-12-19T16:27:01.790Z,74.22
2023-12-19T16:29:30.391Z,74.01
2023-12-19T16:31:58.410Z,74.43
2023-12-19T16:34:26.531Z,74.88
2023-12-19T16:36:55.972Z,75.19
2023-12-19T16:39:23.960Z,74.82
2023-12-19T16:41:51.861Z,74.66
2023-12-19T16:44:19.750Z,75.47
2023-12-19T16:46:47.756Z,75.85
2023-12-19T16:49:17.020Z,76.13
2023-12-19T16:51:45.451Z,75.95
2023-12-19T16:54:14.955Z,76.26
2023-12-19T16:56:42.837Z,76.52
2023-12-19T16:59:10.789Z,77.08
2023-12-19T17:01:38.766Z,77.31
2023-12-19T17:04:08.011Z,77.65
2023-12-19T17:06:36.221Z,77.88
2023-12-19T17:09:04.141Z,77.61
2023-12-19T17:11:33.421Z,77.82
2023-12-19T17:14:01.269Z,78.44
2023-12-19T17:16:29.177Z,78.07
2023-12-19T17:18:57.516Z,78.25
2023-12-19T17:21:25.415Z,78.14
2023-12-19T17:23:54.300Z,77.51
2023-12-19T17:26:25.174Z,77.43
2023-12-19T17:28:54.872Z,77.42
2023-12-19T17:31:23.035Z,78.04
2023-12-19T17:33:51.069Z,78.21
2023-12-19T17:36:23.039Z,78.16
2023-12-19T17:38:51.121Z,78.09
2023-12-19T17:41:20.365Z,78.78
2023-12-19T17:43:48.396Z,79.29
2023-12-19T17:46:17.687Z,79.82
2023-12-19T17:48:46.514Z,80.00
2023-12-19T17:51:14.624Z,79.19
2023-12-19T17:53:42.738Z,78.31
2023-12-19T17:56:10.581Z,78.50
2023-12-19T17:58:38.714Z,78.31
2023-12-19T18:01:06.649Z,78.33
2023-12-19T18:03:36.183Z,78.09
2023-12-19T18:08:34.022Z,77.74
2023-12-19T18:11:01.976Z,78.33
2023-12-19T18:13:29.842Z,78.87
2023-12-19T18:15:57.798Z,79.87
2023-12-19T18:18:26.198Z,79.68
2023-12-19T18:20:58.151Z,80.25
2023-12-19T18:23:26.277Z,80.67
2023-12-19T18:25:54.559Z,81.00
2023-12-19T18:28:22.430Z,81.11
2023-12-19T18:30:50.361Z,80.03
2023-12-19T18:33:18.399Z,80.06
2023-12-19T18:35:46.292Z,79.17
2023-12-19T18:38:15.545Z,78.40
2023-12-19T18:40:43.584Z,79.39
2023-12-19T18:43:11.594Z,78.51
2023-12-19T18:45:39.484Z,78.21
2023-12-19T18:48:08.463Z,78.19
2023-12-19T18:50:36.383Z,78.16
2023-12-19T18:53:04.369Z,79.61
2023-12-19T18:55:33.879Z,80.82
2023-12-19T18:58:04.038Z,81.10
2023-12-19T19:00:32.135Z,81.83
2023-12-19T19:03:00.090Z,82.20
2023-12-19T19:05:28.016Z,82.51
2023-12-19T19:07:56.164Z,81.75
2023-12-19T19:10:24.024Z,82.77
2023-12-19T19:12:54.284Z,82.51
2023-12-19T19:15:22.491Z,82.65
2023-12-19T19:17:50.406Z,83.46
2023-12-19T19:20:35.419Z,83.11
2023-12-19T19:23:04.396Z,83.11
2023-12-19T19:25:34.969Z,83.70
2023-12-19T19:28:04.370Z,84.10
2023-12-19T19:30:32.491Z,83.93
2023-12-19T19:33:00.689Z,84.00
2023-12-19T19:35:28.665Z,84.28
2023-12-19T19:37:56.545Z,84.13
2023-12-19T19:40:34.811Z,84.41
2023-12-19T19:43:07.966Z,84.10
2023-12-19T19:45:35.893Z,84.09
2023-12-19T19:48:03.914Z,84.18
2023-12-19T19:50:31.924Z,86.39
2023-12-19T19:52:59.945Z,90.26
2023-12-19T19:55:29.978Z,90.20
2023-12-19T19:57:59.703Z,90.20
2023-12-19T20:00:29.248Z,90.87
2023-12-19T20:02:57.857Z,91.73
2023-12-19T20:05:25.898Z,90.96
2023-12-19T20:07:56.466Z,89.41
2023-12-19T20:10:24.812Z,89.18
2023-12-19T20:12:53.075Z,87.85
2023-12-19T20:15:21.021Z,87.10
2023-12-19T20:17:50.266Z,86.32
2023-12-19T20:20:18.330Z,85.48
2023-12-19T20:22:47.256Z,85.07
2023-12-19T20:25:16.918Z,84.78
2023-12-19T20:27:45.415Z,85.64
2023-12-19T20:30:15.251Z,85.83
2023-12-19T20:32:44.108Z,86.04
2023-12-19T20:35:14.545Z,86.27
2023-12-19T20:37:42.744Z,85.79
2023-12-19T20:40:12.051Z,86.21
2023-12-19T20:42:40.409Z,86.31
2023-12-19T20:45:09.487Z,86.55
2023-12-19T20:47:37.443Z,85.70
2023-12-19T20:50:06.227Z,85.72
2023-12-19T20:52:45.895Z,85.59
2023-12-19T20:55:19.642Z,85.77
2023-12-19T20:57:47.694Z,85.85
2023-12-19T21:00:16.295Z,85.18
2023-12-19T21:02:44.705Z,84.97
2023-12-19T21:05:12.990Z,85.49
2023-12-19T21:07:42.661Z,85.32
2023-12-19T21:10:11.560Z,84.65
2023-12-19T21:12:40.916Z,83.99
2023-12-19T21:15:10.018Z,84.62
2023-12-19T21:17:37.970Z,84.28
2023-12-19T21:20:07.292Z,83.31
2023-12-19T21:22:35.218Z,83.11
2023-12-19T21:25:05.635Z,83.25
2023-12-19T21:27:33.631Z,83.60
2023-12-19T21:30:01.582Z,82.57
2023-12-19T21:32:30.580Z,82.78
2023-12-19T21:35:01.933Z,82.90
2023-12-19T21:37:29.877Z,82.08
2023-12-19T21:39:57.885Z,82.82
2023-12-19T21:42:27.850Z,82.94
2023-12-19T21:44:55.738Z,82.55
2023-12-19T21:47:23.613Z,81.78
2023-12-19T21:49:51.604Z,81.50
2023-12-19T21:52:20.380Z,81.37
2023-12-19T21:54:48.394Z,80.01
2023-12-19T21:57:16.338Z,79.47
2023-12-19T21:59:47.614Z,79.75
2023-12-19T22:02:15.509Z,79.87
2023-12-19T22:04:43.790Z,80.21
2023-12-19T22:07:12.002Z,80.81
2023-12-19T22:09:45.670Z,81.67
2023-12-19T22:12:21.649Z,81.50
2023-12-19T22:14:51.025Z,80.99
2023-12-19T22:17:18.999Z,80.98
2023-12-19T22:19:47.017Z,81.99
2023-12-19T22:22:15.191Z,80.66
2023-12-19T22:24:43.199Z,81.58
2023-12-19T22:27:13.836Z,81.27
2023-12-19T22:29:45.923Z,81.45
2023-12-19T22:32:16.107Z,81.27
2023-12-19T22:34:44.220Z,80.90
2023-12-19T22:37:12.405Z,80.74
2023-12-19T22:39:40.356Z,80.87
2023-12-19T22:42:08.804Z,80.63
2023-12-19T22:44:36.714Z,81.90
2023-12-19T22:47:04.876Z,80.79
2023-12-19T22:49:34.228Z,80.01
2023-12-19T22:52:02.400Z,78.22
2023-12-19T22:54:30.423Z,78.46
2023-12-19T22:56:58.279Z,77.77
2023-12-19T22:59:27.278Z,77.40
2023-12-19T23:01:55.769Z,77.14
2023-12-19T23:04:24.317Z,76.96
2023-12-19T23:06:53.762Z,77.20
2023-12-19T23:09:21.697Z,76.97
2023-12-19T23:11:49.687Z,77.71
2023-12-19T23:14:19.321Z,76.57
2023-12-19T23:16:47.580Z,77.06
2023-12-19T23:19:15.788Z,77.86
2023-12-19T23:21:43.037Z,78.05
2023-12-19T23:24:12.326Z,78.05
2023-12-19T23:26:40.185Z,78.33
2023-12-19T23:29:09.076Z,78.17
2023-12-19T23:31:41.790Z,79.25
2023-12-19T23:34:11.266Z,78.50
2023-12-19T23:36:39.556Z,79.28
2023-12-19T23:39:07.787Z,79.31
2023-12-19T23:41:37.381Z,79.85
2023-12-19T23:44:05.636Z,79.41
2023-12-19T23:46:34.003Z,79.86
2023-12-19T23:49:01.935Z,78.84
2023-12-19T23:51:29.945Z,79.68
2023-12-19T23:53:57.800Z,80.03
2023-12-19T23:56:25.688Z,80.43
2023-12-19T23:58:54.965Z,80.82
